Time,TemperatureF,DewpointF,PressureIn,WindDirection,WindDirectionDegrees,WindSpeedMPH,WindSpeedGustMPH,Humidity,HourlyPrecipIn,Conditions,Clouds,dailyrainin,SolarRadiationWatts/m^2,SoftwareType,DateUTC
2013-08-06 00:00:00,47.0,44.0,29.68,East,95,1.0,-999.0,91,-99.99,,,-99.99,0.000000,,2013-08-06 04:00:00,
2013-08-06 00:54:00,47.0,44.0,29.68,East,95,1.0,-999.0,91,-99.99,,,-99.99,0.000000,,2013-08-06 04:54:00,
2013-08-06 04:00:00,46.0,43.0,29.69,East,82,1.0,-999.0,91,-99.99,,,-99.99,0.000000,,2013-08-06 08:00:00,
2013-08-06 05:00:00,46.0,44.0,29.69,East,89,1.0,-999.0,90,-99.99,,,-99.99,0.000000,,2013-08-06 09:00:00,
2013-08-06 06:00:00,47.0,43.0,29.70,East,90,1.0,-999.0,88,-99.99,,,-99.99,0.040000,,2013-08-06 10:00:00,
2013-08-06 07:00:00,50.0,45.0,29.71,East,90,1.0,-999.0,83,-99.99,,,-99.99,8.580000,,2013-08-06 11:00:00,
2013-08-06 07:53:00,50.0,45.0,29.71,East,90,1.0,-999.0,83,-99.99,,,-99.99,8.580000,,2013-08-06 11:53:00,
2013-08-06 08:00:00,55.0,49.0,29.73,East,84,0.0,-999.0,78,-99.99,,,-99.99,31.250000,,2013-08-06 12:00:00,
2013-08-06 09:00:00,59.0,50.0,29.74,ESE,113,0.0,-999.0,72,-99.99,,,-99.99,55.049999,,2013-08-06 13:00:00,
2013-08-06 10:00:00,62.0,52.0,29.74,South,173,0.0,-999.0,70,-99.99,,,-99.99,150.699997,,2013-08-06 14:00:00,
2013-08-06 11:00:00,62.0,49.0,29.74,WSW,240,1.0,-999.0,62,-99.99,,,-99.99,195.800003,,2013-08-06 15:00:00,
2013-08-06 11:52:00,62.0,49.0,29.74,WSW,240,1.0,-999.0,62,-99.99,,,-99.99,195.800003,,2013-08-06 15:52:00,
2013-08-06 12:00:00,67.0,50.0,29.75,WSW,242,1.0,-999.0,55,-99.99,,,-99.99,379.760010,,2013-08-06 16:00:00,
2013-08-06 13:00:00,67.0,53.0,29.75,WSW,246,1.0,-999.0,60,-99.99,,,-99.99,611.229980,,2013-08-06 17:00:00,
2013-08-06 13:52:00,67.0,53.0,29.75,WSW,246,1.0,-999.0,60,-99.99,,,-99.99,611.229980,,2013-08-06 17:52:00,
2013-08-06 14:00:00,66.0,52.0,29.74,West,265,1.0,-999.0,61,-99.99,,,-99.99,473.549988,,2013-08-06 18:00:00,
2013-08-06 15:00:00,66.0,53.0,29.74,WSW,237,1.0,-999.0,62,-99.99,,,-99.99,396.670013,,2013-08-06 19:00:00,
2013-08-06 16:00:00,65.0,51.0,29.74,SSW,205,0.0,-999.0,60,-99.99,,,-99.99,205.589996,,2013-08-06 20:00:00,
2013-08-06 16:52:00,65.0,51.0,29.74,SSW,205,0.0,-999.0,60,-99.99,,,-99.99,205.589996,,2013-08-06 20:52:00,
2013-08-06 17:00:00,70.0,56.0,29.73,SSW,206,1.0,-999.0,62,-99.99,,,-99.99,536.840027,,2013-08-06 21:00:00,
2013-08-06 18:00:00,63.0,52.0,29.75,SSW,204,0.0,-999.0,67,-99.99,,,-99.99,46.020000,,2013-08-06 22:00:00,
2013-08-06 18:53:00,63.0,52.0,29.75,SSW,204,0.0,-999.0,67,-99.99,,,-99.99,46.020000,,2013-08-06 22:53:00,
2013-08-06 20:00:00,60.0,54.0,29.75,SE,127,0.0,-999.0,80,-99.99,,,-99.99,13.160000,,2013-08-07 00:00:00,
2013-08-06 21:00:00,56.0,53.0,29.75,East,88,1.0,-999.0,89,-99.99,,,-99.99,0.090000,,2013-08-07 01:00:00,
2013-08-06 22:00:00,55.0,53.0,29.75,East,90,1.0,-999.0,92,-99.99,,,-99.99,0.000000,,2013-08-07 02:00:00,
2013-08-06 23:00:00,55.0,53.0,29.75,NNE,33,0.0,-999.0,91,-99.99,,,-99.99,0.000000,,2013-08-07 03:00:00,
2013-08-06 23:52:00,55.0,53.0,29.75,NNE,33,0.0,-999.0,91,-99.99,,,-99.99,0.000000,,2013-08-07 03:52:00,